createdAt,value
2019-01-20T00:02:16.771Z,-6.70
2019-01-20T00:04:47.807Z,-6.70
2019-01-20T00:07:21.691Z,-6.60
2019-01-20T00:09:54.171Z,-6.60
2019-01-20T00:12:24.440Z,-6.50
2019-01-20T00:14:55.543Z,-6.50
2019-01-20T00:17:25.731Z,-6.50
2019-01-20T00:19:55.819Z,-6.50
2019-01-20T00:22:27.075Z,-6.60
2019-01-20T00:24:57.209Z,-6.50
2019-01-20T00:27:27.357Z,-6.50
2019-01-20T00:29:57.704Z,-6.50
2019-01-20T00:32:29.507Z,-6.50
2019-01-20T00:34:59.835Z,-6.50
2019-01-20T00:37:29.958Z,-6.50
2019-01-20T00:40:00.254Z,-6.40
2019-01-20T00:42:31.255Z,-6.40
2019-01-20T00:45:02.691Z,-6.40
2019-01-20T00:47:35.779Z,-6.40
2019-01-20T00:50:11.003Z,-6.30
2019-01-20T00:52:41.204Z,-6.30
2019-01-20T00:55:15.209Z,-6.30
2019-01-20T00:57:45.563Z,-6.30
2019-01-20T01:00:30.047Z,-6.30
2019-01-20T01:03:01.397Z,-6.40
2019-01-20T01:05:31.824Z,-6.40
2019-01-20T01:08:01.983Z,-6.40
2019-01-20T01:10:32.328Z,-6.50
2019-01-20T01:13:03.731Z,-6.50
2019-01-20T01:15:33.835Z,-6.50
2019-01-20T01:18:04.204Z,-6.50
2019-01-20T01:20:34.291Z,-6.50
2019-01-20T01:23:04.411Z,-6.40
2019-01-20T01:25:34.512Z,-6.40
2019-01-20T01:28:05.643Z,-6.40
2019-01-20T01:30:35.747Z,-6.40
2019-01-20T01:33:05.831Z,-6.40
2019-01-20T01:35:35.940Z,-6.50
2019-01-20T01:38:06.103Z,-6.50
2019-01-20T01:40:36.191Z,-6.50
2019-01-20T01:43:06.303Z,-6.50
2019-01-20T01:45:36.407Z,-6.50
2019-01-20T01:48:06.839Z,-6.40
2019-01-20T01:50:36.936Z,-6.50
2019-01-20T01:53:07.099Z,-6.50
2019-01-20T01:55:42.080Z,-6.40
2019-01-20T01:58:12.179Z,-6.40
2019-01-20T02:00:43.343Z,-6.30
2019-01-20T02:03:13.435Z,-6.30
2019-01-20T02:05:43.540Z,-6.30
2019-01-20T02:08:15.727Z,-6.30
2019-01-20T02:10:45.807Z,-6.30
2019-01-20T02:13:16.903Z,-6.40
2019-01-20T02:15:47.067Z,-6.40
2019-01-20T02:18:18.237Z,-6.50
2019-01-20T02:20:48.529Z,-6.50
2019-01-20T02:23:18.755Z,-6.50
2019-01-20T02:25:49.831Z,-6.50
2019-01-20T02:28:19.944Z,-6.50
2019-01-20T02:30:50.103Z,-6.50
2019-01-20T02:33:20.221Z,-6.60
2019-01-20T02:35:50.335Z,-6.50
2019-01-20T02:38:20.427Z,-6.60
2019-01-20T02:40:50.559Z,-6.60
2019-01-20T02:43:20.667Z,-6.60
2019-01-20T02:45:50.765Z,-6.60
2019-01-20T02:48:20.863Z,-6.60
2019-01-20T02:50:51.947Z,-6.60
2019-01-20T02:53:22.073Z,-6.60
2019-01-20T02:55:53.111Z,-6.60
2019-01-20T02:58:23.185Z,-6.60
2019-01-20T03:00:53.299Z,-6.70
2019-01-20T03:03:23.385Z,-6.70
2019-01-20T03:05:53.483Z,-6.70
2019-01-20T03:08:23.603Z,-6.80
2019-01-20T03:10:53.689Z,-6.80
2019-01-20T03:13:23.803Z,-6.80
2019-01-20T03:15:53.909Z,-6.80
2019-01-20T03:18:25.915Z,-6.80
2019-01-20T03:20:58.691Z,-6.80
2019-01-20T03:23:28.844Z,-6.80
2019-01-20T03:25:58.975Z,-6.80
2019-01-20T03:28:29.099Z,-6.90
2019-01-20T03:30:59.284Z,-6.90
2019-01-20T03:33:29.457Z,-6.90
2019-01-20T03:36:00.547Z,-6.80
2019-01-20T03:38:30.655Z,-6.80
2019-01-20T03:41:01.695Z,-6.80
2019-01-20T03:43:31.821Z,-6.80
2019-01-20T03:46:01.898Z,-6.80
2019-01-20T03:48:31.989Z,-6.80
2019-01-20T03:51:03.142Z,-6.80
2019-01-20T03:53:33.175Z,-6.80
2019-01-20T03:56:03.321Z,-6.80
2019-01-20T03:58:33.396Z,-6.80
2019-01-20T04:01:06.707Z,-6.90
2019-01-20T04:03:40.035Z,-6.90
2019-01-20T04:06:17.027Z,-6.90
2019-01-20T04:08:48.707Z,-6.90
2019-01-20T04:11:18.869Z,-7.00
2019-01-20T04:13:49.943Z,-7.00
2019-01-20T04:16:26.228Z,-7.00
2019-01-20T04:18:56.330Z,-7.00
2019-01-20T04:21:28.368Z,-7.00
2019-01-20T04:23:58.509Z,-7.10
2019-01-20T04:26:28.612Z,-7.10
2019-01-20T04:29:04.659Z,-7.10
2019-01-20T04:31:38.335Z,-7.20
2019-01-20T04:34:14.584Z,-7.20
2019-01-20T04:36:44.672Z,-7.30
2019-01-20T04:39:14.792Z,-7.30
2019-01-20T04:41:44.907Z,-7.30
2019-01-20T04:44:15.004Z,-7.30
2019-01-20T04:46:45.127Z,-7.40
2019-01-20T04:49:15.229Z,-7.30
2019-01-20T04:51:46.267Z,-7.30
2019-01-20T04:54:16.468Z,-7.30
2019-01-20T04:57:02.588Z,-7.20
2019-01-20T04:59:34.279Z,-7.20
2019-01-20T05:02:04.825Z,-7.20
2019-01-20T05:04:36.839Z,-7.20
2019-01-20T05:07:06.967Z,-7.20
2019-01-20T05:09:37.075Z,-7.20
2019-01-20T05:12:07.178Z,-7.20
2019-01-20T05:14:37.284Z,-7.30
2019-01-20T05:17:07.385Z,-7.30
2019-01-20T05:19:37.784Z,-7.50
2019-01-20T05:22:07.911Z,-7.50
2019-01-20T05:24:37.995Z,-7.40
2019-01-20T05:27:10.799Z,-7.50
2019-01-20T05:29:43.767Z,-7.70
2019-01-20T05:32:20.963Z,-7.70
2019-01-20T05:34:51.056Z,-7.70
2019-01-20T05:37:32.372Z,-7.70
2019-01-20T05:40:02.471Z,-7.70
2019-01-20T05:42:33.407Z,-7.70
2019-01-20T05:45:05.771Z,-7.70
2019-01-20T05:47:35.895Z,-7.70
2019-01-20T05:50:13.815Z,-7.70
2019-01-20T05:52:45.075Z,-7.80
2019-01-20T05:55:17.452Z,-7.80
2019-01-20T05:58:02.144Z,-7.80
2019-01-20T06:00:47.259Z,-7.80
2019-01-20T06:03:17.367Z,-7.80
2019-01-20T06:05:48.401Z,-7.80
2019-01-20T06:08:18.517Z,-7.80
2019-01-20T06:10:51.098Z,-7.80
2019-01-20T06:13:21.200Z,-7.90
2019-01-20T06:15:52.248Z,-8.00
2019-01-20T06:18:23.318Z,-8.10
2019-01-20T06:20:53.387Z,-8.10
2019-01-20T06:23:25.479Z,-8.10
2019-01-20T06:26:08.596Z,-8.20
2019-01-20T06:28:39.561Z,-8.10
2019-01-20T06:31:16.535Z,-8.00
2019-01-20T06:33:46.640Z,-8.00
2019-01-20T06:36:17.927Z,-8.00
2019-01-20T06:38:49.946Z,-8.00
2019-01-20T06:41:20.028Z,-8.00
2019-01-20T06:43:50.126Z,-8.00
2019-01-20T06:46:22.837Z,-8.00
2019-01-20T06:48:54.132Z,-8.00
2019-01-20T06:51:24.232Z,-8.00
2019-01-20T06:53:56.286Z,-8.00
2019-01-20T06:56:27.353Z,-8.10
2019-01-20T06:58:57.471Z,-8.10
2019-01-20T07:01:27.566Z,-8.10
2019-01-20T07:03:57.660Z,-8.00
2019-01-20T07:06:29.739Z,-8.00
2019-01-20T07:09:00.803Z,-8.00
2019-01-20T07:11:31.063Z,-8.00
2019-01-20T07:14:02.148Z,-8.00
2019-01-20T07:16:32.423Z,-7.90
2019-01-20T07:19:04.149Z,-7.90
2019-01-20T07:21:34.247Z,-7.80
2019-01-20T07:24:05.696Z,-7.80
2019-01-20T07:26:37.967Z,-7.60
2019-01-20T07:29:08.251Z,-7.40
2019-01-20T07:31:41.380Z,-7.10
2019-01-20T07:34:18.587Z,-7.00
2019-01-20T07:36:48.683Z,-6.80
2019-01-20T07:39:18.787Z,-6.60
2019-01-20T07:42:02.848Z,-6.40
2019-01-20T07:44:33.091Z,-6.30
2019-01-20T07:47:06.371Z,-6.10
2019-01-20T07:49:36.584Z,-5.80
2019-01-20T07:52:06.667Z,-5.50
2019-01-20T07:54:36.859Z,-5.20
2019-01-20T07:57:07.346Z,-5.00
2019-01-20T07:59:37.541Z,-4.80
2019-01-20T08:02:08.663Z,-4.70
2019-01-20T08:04:38.807Z,-4.70
2019-01-20T08:07:09.871Z,-4.40
2019-01-20T08:09:43.971Z,-4.20
2019-01-20T08:12:14.085Z,-4.10
2019-01-20T08:14:44.543Z,-4.20
2019-01-20T08:17:14.652Z,-4.10
2019-01-20T08:19:44.762Z,-3.90
2019-01-20T08:22:14.851Z,-3.60
2019-01-20T08:24:45.085Z,-3.30
2019-01-20T08:27:15.323Z,-3.20
2019-01-20T08:29:45.379Z,-3.00
2019-01-20T08:32:15.481Z,-2.60
2019-01-20T08:34:46.583Z,-2.30
2019-01-20T08:37:16.703Z,-1.90
2019-01-20T08:39:46.807Z,-1.80
2019-01-20T08:42:16.969Z,-1.40
2019-01-20T08:44:49.091Z,-1.30
2019-01-20T08:47:20.219Z,-1.20
2019-01-20T08:49:50.472Z,-1.20
2019-01-20T08:52:20.592Z,-1.10
2019-01-20T08:54:50.775Z,-0.80
2019-01-20T08:57:20.871Z,-0.40
2019-01-20T08:59:52.051Z,-0.60
2019-01-20T09:02:24.111Z,-0.50
2019-01-20T09:04:56.115Z,-0.60
2019-01-20T09:07:26.215Z,-0.60
2019-01-20T09:09:56.375Z,-0.30
2019-01-20T09:12:26.823Z,0.00
2019-01-20T09:14:57.935Z,0.40
2019-01-20T09:17:28.228Z,0.30
2019-01-20T09:19:58.327Z,1.00
2019-01-20T09:22:29.599Z,1.30
2019-01-20T09:24:59.785Z,1.30
2019-01-20T09:27:29.957Z,1.10
2019-01-20T09:30:00.093Z,1.50
2019-01-20T09:32:30.292Z,1.60
2019-01-20T09:35:00.463Z,2.10
2019-01-20T09:37:30.791Z,2.10
2019-01-20T09:40:01.942Z,2.40
2019-01-20T09:42:32.146Z,2.40
2019-01-20T09:45:03.563Z,1.90
2019-01-20T09:47:33.727Z,1.70
2019-01-20T09:50:06.383Z,1.70
2019-01-20T09:52:41.511Z,1.70
2019-01-20T09:55:12.927Z,1.70
2019-01-20T09:57:48.819Z,1.80
2019-01-20T10:00:34.961Z,1.60
2019-01-20T10:03:06.386Z,1.90
2019-01-20T10:05:36.471Z,2.20
2019-01-20T10:08:06.569Z,2.50
2019-01-20T10:10:36.647Z,2.80
2019-01-20T10:13:07.823Z,4.00
2019-01-20T10:15:38.864Z,4.20
2019-01-20T10:18:12.716Z,3.80
2019-01-20T10:20:42.828Z,4.60
2019-01-20T10:23:12.983Z,5.00
2019-01-20T10:25:46.164Z,4.50
2019-01-20T10:28:18.299Z,4.80
2019-01-20T10:30:48.443Z,5.20
2019-01-20T10:33:20.885Z,5.10
2019-01-20T10:35:52.776Z,5.00
2019-01-20T10:38:22.891Z,4.00
2019-01-20T10:40:54.059Z,3.70
2019-01-20T10:43:24.215Z,4.60
2019-01-20T10:45:54.320Z,4.50
2019-01-20T10:48:30.576Z,5.00
2019-01-20T10:51:03.356Z,5.00
2019-01-20T10:53:33.512Z,3.50
2019-01-20T10:56:03.836Z,2.30
2019-01-20T10:58:33.936Z,2.70
2019-01-20T11:01:05.196Z,2.80
2019-01-20T11:03:35.300Z,2.40
2019-01-20T11:06:05.747Z,1.60
2019-01-20T11:08:35.931Z,1.70
2019-01-20T11:11:06.191Z,1.90
2019-01-20T11:13:36.887Z,2.00
2019-01-20T11:16:08.270Z,1.40
2019-01-20T11:18:39.287Z,1.40
2019-01-20T11:21:12.551Z,1.10
2019-01-20T11:23:45.867Z,1.80
2019-01-20T11:26:22.187Z,3.30
2019-01-20T11:28:52.287Z,4.30
2019-01-20T11:31:22.371Z,4.10
2019-01-20T11:33:52.505Z,5.80
2019-01-20T11:36:23.741Z,6.40
2019-01-20T11:38:53.857Z,5.00
2019-01-20T11:41:24.965Z,3.30
2019-01-20T11:43:55.019Z,2.20
2019-01-20T11:46:25.187Z,2.60
2019-01-20T11:48:55.309Z,4.00
2019-01-20T11:51:25.541Z,3.40
2019-01-20T11:53:55.715Z,2.40
2019-01-20T11:56:25.827Z,3.60
2019-01-20T11:58:55.954Z,3.70
2019-01-20T12:01:26.971Z,3.90
2019-01-20T12:03:57.139Z,4.60
2019-01-20T12:06:28.223Z,5.50
2019-01-20T12:08:58.323Z,5.20
2019-01-20T12:11:29.429Z,4.20
2019-01-20T12:14:00.626Z,4.00
2019-01-20T12:16:30.703Z,3.90
2019-01-20T12:19:00.792Z,4.00
2019-01-20T12:21:30.916Z,4.00
2019-01-20T12:24:01.016Z,5.00
2019-01-20T12:26:31.111Z,5.60
2019-01-20T12:29:01.204Z,6.00
2019-01-20T12:31:37.087Z,5.90
2019-01-20T12:34:07.235Z,6.20
2019-01-20T12:36:37.396Z,7.50
2019-01-20T12:39:08.619Z,8.90
2019-01-20T12:41:40.710Z,7.60
2019-01-20T12:44:10.804Z,7.60
2019-01-20T12:46:46.956Z,8.20
2019-01-20T12:49:17.037Z,8.00
2019-01-20T12:51:47.116Z,8.30
2019-01-20T12:54:17.199Z,7.30
2019-01-20T12:56:47.384Z,6.70
2019-01-20T12:59:18.456Z,6.50
2019-01-20T13:01:48.654Z,7.10
2019-01-20T13:04:18.750Z,7.30
2019-01-20T13:06:52.224Z,6.80
2019-01-20T13:09:22.312Z,6.30
2019-01-20T13:11:53.368Z,6.80
2019-01-20T13:14:23.448Z,7.60
2019-01-20T13:16:54.484Z,8.10
2019-01-20T13:19:24.756Z,7.40
2019-01-20T13:22:00.763Z,7.20
2019-01-20T13:24:30.920Z,6.50
2019-01-20T13:27:06.125Z,5.70
2019-01-20T13:29:43.268Z,4.50
2019-01-20T13:32:14.348Z,4.30
2019-01-20T13:34:44.512Z,3.90
2019-01-20T13:37:22.777Z,3.90
2019-01-20T13:39:53.166Z,4.40
2019-01-20T13:42:25.256Z,4.00
2019-01-20T13:45:01.130Z,3.60
2019-01-20T13:47:38.044Z,3.90
2019-01-20T13:50:16.524Z,3.90
2019-01-20T13:52:47.768Z,2.90
2019-01-20T13:55:20.652Z,2.10
2019-01-20T13:57:50.740Z,1.70
2019-01-20T14:00:25.566Z,1.60
2019-01-20T14:02:57.660Z,1.60
2019-01-20T14:05:27.852Z,1.20
2019-01-20T14:07:57.980Z,0.70
2019-01-20T14:10:29.160Z,0.30
2019-01-20T14:12:59.284Z,-0.20
2019-01-20T14:15:30.322Z,-0.70
2019-01-20T14:18:01.344Z,-0.80
2019-01-20T14:20:31.491Z,-0.90
2019-01-20T14:23:07.581Z,-1.10
2019-01-20T14:25:45.448Z,-1.20
2019-01-20T14:28:18.568Z,-1.50
2019-01-20T14:30:48.638Z,-1.80
2019-01-20T14:33:18.808Z,-2.00
2019-01-20T14:35:48.889Z,-2.00
2019-01-20T14:38:25.772Z,-1.80
2019-01-20T14:41:01.724Z,-1.80
2019-01-20T14:43:31.846Z,-2.00
2019-01-20T14:46:11.036Z,-2.40
2019-01-20T14:48:41.152Z,-2.70
2019-01-20T14:51:11.304Z,-2.80
2019-01-20T14:53:48.184Z,-3.00
2019-01-20T14:56:18.312Z,-3.00
2019-01-20T14:58:48.428Z,-3.00
2019-01-20T15:01:18.520Z,-2.80
2019-01-20T15:03:52.736Z,-2.80
2019-01-20T15:06:22.882Z,-2.90
2019-01-20T15:08:53.036Z,-3.10
2019-01-20T15:11:23.176Z,-3.40
2019-01-20T15:13:56.505Z,-3.50
2019-01-20T15:16:27.544Z,-3.50
2019-01-20T15:19:08.176Z,-3.50
2019-01-20T15:21:38.356Z,-3.50
2019-01-20T15:24:15.303Z,-3.60
2019-01-20T15:26:45.440Z,-3.70
2019-01-20T15:29:15.634Z,-3.70
2019-01-20T15:31:47.720Z,-3.70
2019-01-20T15:34:17.824Z,-3.70
2019-01-20T15:36:47.928Z,-3.70
2019-01-20T15:39:19.044Z,-3.80
2019-01-20T15:41:51.041Z,-3.80
2019-01-20T15:44:21.161Z,-3.80
2019-01-20T15:46:51.284Z,-3.80
2019-01-20T15:49:27.387Z,-3.80
2019-01-20T15:51:59.415Z,-3.80
2019-01-20T15:54:31.468Z,-3.80
2019-01-20T15:57:07.336Z,-3.80
2019-01-20T15:59:37.436Z,-3.90
2019-01-20T16:02:08.468Z,-3.90
2019-01-20T16:04:38.580Z,-3.90
2019-01-20T16:07:08.664Z,-3.90
2019-01-20T16:09:39.832Z,-3.90
2019-01-20T16:12:09.932Z,-3.90
2019-01-20T16:14:40.032Z,-3.90
2019-01-20T16:17:12.088Z,-3.90
2019-01-20T16:19:48.053Z,-3.90
2019-01-20T16:22:19.310Z,-4.00
2019-01-20T16:24:49.400Z,-4.00
2019-01-20T16:27:24.500Z,-4.10
2019-01-20T16:29:55.632Z,-4.10
2019-01-20T16:32:26.704Z,-4.10
2019-01-20T16:35:00.935Z,-4.10
2019-01-20T16:37:31.032Z,-4.10
2019-01-20T16:40:01.132Z,-4.20
2019-01-20T16:42:31.239Z,-4.30
2019-01-20T16:45:02.328Z,-4.30
2019-01-20T16:47:34.477Z,-4.20
2019-01-20T16:50:14.186Z,-4.20
2019-01-20T16:52:45.420Z,-4.20
2019-01-20T16:55:17.601Z,-4.20
2019-01-20T16:57:47.752Z,-4.20
2019-01-20T17:00:25.519Z,-4.20
2019-01-20T17:02:57.668Z,-4.20
2019-01-20T17:05:28.944Z,-4.30
2019-01-20T17:07:59.284Z,-4.30
2019-01-20T17:10:39.490Z,-4.30
2019-01-20T17:13:10.904Z,-4.40
2019-01-20T17:15:42.544Z,-4.50
2019-01-20T17:18:14.128Z,-4.50
2019-01-20T17:20:45.220Z,-4.60
2019-01-20T17:23:15.310Z,-4.60
2019-01-20T17:25:48.504Z,-4.70
2019-01-20T17:28:18.632Z,-4.80
2019-01-20T17:30:48.812Z,-4.70
2019-01-20T17:33:18.913Z,-4.60
2019-01-20T17:35:49.077Z,-4.60
2019-01-20T17:38:20.161Z,-4.50
2019-01-20T17:40:50.256Z,-4.40
2019-01-20T17:43:20.365Z,-4.30
2019-01-20T17:45:50.521Z,-4.30
2019-01-20T17:48:27.609Z,-4.20
2019-01-20T17:50:57.761Z,-4.10
2019-01-20T17:53:27.893Z,-4.10
2019-01-20T17:55:57.965Z,-4.10
2019-01-20T17:58:29.013Z,-4.10
2019-01-20T18:00:59.317Z,-4.10
2019-01-20T18:03:29.536Z,-4.00
2019-01-20T18:06:01.780Z,-4.00
2019-01-20T18:08:34.901Z,-4.00
2019-01-20T18:11:05.069Z,-4.00
2019-01-20T18:13:44.265Z,-4.00
2019-01-20T18:16:15.298Z,-4.00
2019-01-20T18:18:46.311Z,-4.00
2019-01-20T18:21:16.489Z,-3.90
2019-01-20T18:23:52.669Z,-4.00
2019-01-20T18:26:22.779Z,-3.90
2019-01-20T18:28:53.118Z,-3.80
2019-01-20T18:31:25.229Z,-3.80
2019-01-20T18:33:56.284Z,-3.70
2019-01-20T18:36:28.355Z,-3.70
2019-01-20T18:38:58.450Z,-3.70
2019-01-20T18:41:30.738Z,-3.60
2019-01-20T18:44:00.849Z,-3.60
2019-01-20T18:46:30.945Z,-3.60
2019-01-20T18:49:01.037Z,-3.60
2019-01-20T18:51:38.469Z,-3.60
2019-01-20T18:54:09.575Z,-3.50
2019-01-20T18:56:55.710Z,-3.50
2019-01-20T18:59:25.929Z,-3.50
2019-01-20T19:01:56.024Z,-3.50
2019-01-20T19:04:26.112Z,-3.50
2019-01-20T19:07:02.924Z,-3.50
2019-01-20T19:09:38.169Z,-3.50
2019-01-20T19:12:14.221Z,-3.50
2019-01-20T19:14:44.353Z,-3.50
2019-01-20T19:17:14.469Z,-3.50
2019-01-20T19:19:44.601Z,-3.50
2019-01-20T19:22:16.661Z,-3.50
2019-01-20T19:24:47.713Z,-3.50
2019-01-20T19:27:18.732Z,-3.50
2019-01-20T19:29:54.701Z,-3.50
2019-01-20T19:32:24.796Z,-3.50
2019-01-20T19:34:55.113Z,-3.60
2019-01-20T19:37:25.369Z,-3.50
2019-01-20T19:39:57.401Z,-3.50
2019-01-20T19:42:28.537Z,-3.60
2019-01-20T19:44:58.749Z,-3.60
2019-01-20T19:47:28.981Z,-3.60
2019-01-20T19:49:59.069Z,-3.60
2019-01-20T19:52:30.121Z,-3.60
2019-01-20T19:55:00.212Z,-3.50
2019-01-20T19:57:30.345Z,-3.50
2019-01-20T20:00:13.802Z,-3.50
2019-01-20T20:02:44.012Z,-3.50
2019-01-20T20:05:18.214Z,-3.50
2019-01-20T20:07:51.614Z,-3.50
2019-01-20T20:10:29.761Z,-3.50
2019-01-20T20:13:06.069Z,-3.60
2019-01-20T20:15:37.422Z,-3.60
2019-01-20T20:18:09.509Z,-3.60
2019-01-20T20:20:40.489Z,-3.60
2019-01-20T20:23:11.816Z,-3.60
2019-01-20T20:25:41.925Z,-3.60
2019-01-20T20:28:12.940Z,-3.70
2019-01-20T20:30:43.162Z,-3.70
2019-01-20T20:33:13.321Z,-3.90
2019-01-20T20:35:44.373Z,-3.90
2019-01-20T20:38:15.432Z,-4.10
2019-01-20T20:40:47.458Z,-4.20
2019-01-20T20:43:18.532Z,-4.40
2019-01-20T20:45:56.706Z,-4.50
2019-01-20T20:48:27.749Z,-4.70
2019-01-20T20:50:58.009Z,-4.80
2019-01-20T20:53:29.248Z,-5.00
2019-01-20T20:55:59.381Z,-5.10
2019-01-20T20:58:42.613Z,-5.00
2019-01-20T21:01:16.777Z,-5.10
2019-01-20T21:03:46.889Z,-5.10
2019-01-20T21:06:23.780Z,-5.20
2019-01-20T21:08:56.856Z,-5.20
2019-01-20T21:11:27.040Z,-5.30
2019-01-20T21:13:58.208Z,-5.30
2019-01-20T21:16:28.525Z,-5.40
2019-01-20T21:18:59.590Z,-5.60
2019-01-20T21:21:29.902Z,-5.80
2019-01-20T21:24:00.101Z,-5.80
2019-01-20T21:26:31.181Z,-5.90
2019-01-20T21:29:01.296Z,-6.00
2019-01-20T21:31:31.405Z,-5.90
2019-01-20T21:34:02.465Z,-5.90
2019-01-20T21:36:32.578Z,-6.00
2019-01-20T21:39:05.205Z,-6.10
2019-01-20T21:41:35.297Z,-6.10
2019-01-20T21:44:08.040Z,-6.10
2019-01-20T21:46:45.270Z,-6.10
2019-01-20T21:49:22.317Z,-6.10
2019-01-20T21:51:54.301Z,-6.20
2019-01-20T21:54:24.401Z,-6.30
2019-01-20T21:56:54.648Z,-6.30
2019-01-20T21:59:24.773Z,-6.30
2019-01-20T22:01:54.898Z,-6.40
2019-01-20T22:04:24.987Z,-6.40
2019-01-20T22:06:55.084Z,-6.40
2019-01-20T22:09:28.245Z,-6.40
2019-01-20T22:11:58.338Z,-6.40
2019-01-20T22:14:28.438Z,-6.60
2019-01-20T22:16:58.548Z,-6.60
2019-01-20T22:19:29.573Z,-6.60
2019-01-20T22:21:59.773Z,-6.50
2019-01-20T22:24:29.865Z,-6.60
2019-01-20T22:27:05.661Z,-6.50
2019-01-20T22:29:41.929Z,-6.60
2019-01-20T22:32:12.977Z,-6.50
2019-01-20T22:34:44.005Z,-6.60
2019-01-20T22:37:16.065Z,-6.60
2019-01-20T22:39:49.193Z,-6.70
2019-01-20T22:42:19.313Z,-6.90
2019-01-20T22:44:56.312Z,-7.00
2019-01-20T22:47:26.367Z,-7.00
2019-01-20T22:49:57.418Z,-7.00
2019-01-20T22:52:29.530Z,-7.10
2019-01-20T22:55:07.821Z,-7.20
2019-01-20T22:57:38.865Z,-7.20
2019-01-20T23:00:50.837Z,-7.20
2019-01-20T23:03:21.179Z,-7.40
2019-01-20T23:05:51.413Z,-7.50
2019-01-20T23:08:21.850Z,-7.60
2019-01-20T23:10:51.965Z,-7.70
2019-01-20T23:13:22.110Z,-7.70
2019-01-20T23:15:52.205Z,-7.90
2019-01-20T23:18:22.291Z,-8.00
2019-01-20T23:20:53.477Z,-8.00
2019-01-20T23:23:23.642Z,-8.10
2019-01-20T23:25:53.735Z,-8.20
2019-01-20T23:28:23.919Z,-8.20
2019-01-20T23:30:53.998Z,-8.20
2019-01-20T23:33:24.227Z,-8.20
2019-01-20T23:35:54.378Z,-8.20
2019-01-20T23:38:24.455Z,-8.30
2019-01-20T23:40:54.537Z,-8.30
2019-01-20T23:43:33.933Z,-8.30
2019-01-20T23:46:04.252Z,-8.40
2019-01-20T23:48:34.341Z,-8.30
2019-01-20T23:51:05.394Z,-8.30
2019-01-20T23:53:35.536Z,-8.30
2019-01-20T23:56:05.742Z,-8.40
2019-01-20T23:58:42.001Z,-8.40
